N12215 KMMH-KSEE
Flight info
| Callsign | N12215 |
|---|---|
| Flight time | N/A |
| Altitude | 23000 |
| Route | CROLI1 EHF V23 MZB |
| Aircraft | BE36/L-VGD/C |
Departure
| Time | 2026-04-28 04:20 |
|---|---|
| Airport | Mammoth Yosemite Airport (KMMH) |
Arrival
| Time | N/A |
|---|---|
| Airport | Gillespie Field (KSEE) |
| Time | Latitude | Longitude | Altitude | Speed | Heading |
|---|---|---|---|---|---|
| 2026-04-28 04:07 | 37.62416 | -118.83512 | 7104 ft | 0 kts | 285° |
| 2026-04-28 04:15 | 37.62385 | -118.83444 | 7104 ft | 15 kts | 110° |
| 2026-04-28 04:16 | 37.62327 | -118.83280 | 7100 ft | 25 kts | 109° |
| 2026-04-28 04:16 | 37.62262 | -118.83047 | 7094 ft | 28 kts | 105° |
| 2026-04-28 04:16 | 37.62201 | -118.82806 | 7084 ft | 30 kts | 111° |
| 2026-04-28 04:16 | 37.62139 | -118.82717 | 7077 ft | 0 kts | 206° |
| 2026-04-28 04:18 | 37.62138 | -118.82718 | 7077 ft | 0 kts | 205° |
| 2026-04-28 04:18 | 37.62104 | -118.82739 | 7078 ft | 10 kts | 226° |
| 2026-04-28 04:18 | 37.62154 | -118.82950 | 7089 ft | 52 kts | 289° |
| 2026-04-28 04:19 | 37.62323 | -118.83558 | 7109 ft | 89 kts | 290° |
| 2026-04-28 04:19 | 37.62548 | -118.84344 | 7228 ft | 102 kts | 291° |
| 2026-04-28 04:19 | 37.62801 | -118.85189 | 7471 ft | 104 kts | 287° |
| 2026-04-28 04:19 | 37.63032 | -118.86093 | 7663 ft | 111 kts | 286° |
| 2026-04-28 04:20 | 37.63263 | -118.87028 | 7891 ft | 113 kts | 286° |
| 2026-04-28 04:20 | 37.63493 | -118.87981 | 8129 ft | 114 kts | 286° |
| 2026-04-28 04:20 | 37.63720 | -118.88940 | 8368 ft | 115 kts | 286° |
| 2026-04-28 04:20 | 37.63944 | -118.89902 | 8634 ft | 112 kts | 287° |
| 2026-04-28 04:21 | 37.64420 | -118.90641 | 8842 ft | 113 kts | 333° |
| 2026-04-28 04:21 | 37.65188 | -118.90725 | 9032 ft | 116 kts | 18° |
| 2026-04-28 04:21 | 37.65770 | -118.90064 | 9266 ft | 117 kts | 64° |
| 2026-04-28 04:21 | 37.65929 | -118.89052 | 9530 ft | 118 kts | 81° |
| 2026-04-28 04:22 | 37.66019 | -118.88023 | 9761 ft | 119 kts | 81° |
| 2026-04-28 04:22 | 37.66112 | -118.86996 | 9999 ft | 119 kts | 80° |
| 2026-04-28 04:22 | 37.66212 | -118.85946 | 10249 ft | 120 kts | 80° |
| 2026-04-28 04:22 | 37.66312 | -118.84912 | 10495 ft | 120 kts | 80° |
| 2026-04-28 04:23 | 37.66412 | -118.83869 | 10745 ft | 120 kts | 79° |
| 2026-04-28 04:23 | 37.66518 | -118.82804 | 10936 ft | 125 kts | 79° |
| 2026-04-28 04:23 | 37.66626 | -118.81703 | 11157 ft | 127 kts | 79° |
| 2026-04-28 04:23 | 37.66734 | -118.80592 | 11394 ft | 128 kts | 80° |
| 2026-04-28 04:24 | 37.66842 | -118.79482 | 11634 ft | 128 kts | 79° |
| 2026-04-28 04:24 | 37.66952 | -118.78360 | 11872 ft | 129 kts | 79° |
| 2026-04-28 04:24 | 37.67061 | -118.77234 | 12110 ft | 129 kts | 79° |
| 2026-04-28 04:24 | 37.67172 | -118.76111 | 12338 ft | 130 kts | 79° |
| 2026-04-28 04:25 | 37.66963 | -118.75006 | 12553 ft | 136 kts | 123° |
| 2026-04-28 04:25 | 37.66161 | -118.74387 | 12772 ft | 140 kts | 169° |
| 2026-04-28 04:25 | 37.65216 | -118.74606 | 12996 ft | 140 kts | 206° |
| 2026-04-28 04:25 | 37.64376 | -118.75240 | 13229 ft | 141 kts | 214° |
| 2026-04-28 04:26 | 37.63579 | -118.75946 | 13447 ft | 142 kts | 217° |
| 2026-04-28 04:26 | 37.62789 | -118.76688 | 13675 ft | 142 kts | 218° |
| 2026-04-28 04:26 | 37.62002 | -118.77443 | 13906 ft | 142 kts | 218° |
| 2026-04-28 04:26 | 37.61229 | -118.78191 | 14143 ft | 141 kts | 219° |
| 2026-04-28 04:27 | 37.60441 | -118.78957 | 14378 ft | 141 kts | 220° |
| 2026-04-28 04:27 | 37.59666 | -118.79713 | 14613 ft | 141 kts | 220° |
| 2026-04-28 04:27 | 37.58899 | -118.80463 | 14844 ft | 141 kts | 220° |
| 2026-04-28 04:27 | 37.58117 | -118.81225 | 15076 ft | 141 kts | 220° |
| 2026-04-28 04:28 | 37.57378 | -118.81946 | 15426 ft | 132 kts | 221° |
| 2026-04-28 04:28 | 37.56667 | -118.82637 | 15727 ft | 128 kts | 221° |
| 2026-04-28 04:28 | 37.55963 | -118.83322 | 16007 ft | 127 kts | 223° |
| 2026-04-28 04:28 | 37.55267 | -118.84004 | 16267 ft | 127 kts | 223° |
| 2026-04-28 04:29 | 37.54561 | -118.84692 | 16527 ft | 127 kts | 223° |
| 2026-04-28 04:29 | 37.53860 | -118.85377 | 16785 ft | 127 kts | 223° |
| 2026-04-28 04:29 | 37.53169 | -118.86051 | 17043 ft | 127 kts | 224° |
| 2026-04-28 04:29 | 37.52354 | -118.86528 | 17302 ft | 134 kts | 197° |
| 2026-04-28 04:30 | 37.51423 | -118.86679 | 17542 ft | 137 kts | 192° |
| 2026-04-28 04:30 | 37.50466 | -118.86792 | 17794 ft | 137 kts | 192° |
| 2026-04-28 04:30 | 37.49521 | -118.86903 | 18038 ft | 137 kts | 193° |
| 2026-04-28 04:30 | 37.48568 | -118.87013 | 18278 ft | 138 kts | 193° |
| 2026-04-28 04:31 | 37.47609 | -118.87127 | 18523 ft | 138 kts | 194° |
| 2026-04-28 04:31 | 37.46640 | -118.87240 | 18762 ft | 139 kts | 194° |
| 2026-04-28 04:31 | 37.45683 | -118.87349 | 19004 ft | 139 kts | 194° |
| 2026-04-28 04:31 | 37.44710 | -118.87465 | 19226 ft | 141 kts | 194° |
| 2026-04-28 04:32 | 37.43742 | -118.87577 | 19452 ft | 140 kts | 194° |
| 2026-04-28 04:32 | 37.42764 | -118.87691 | 19664 ft | 141 kts | 194° |
| 2026-04-28 04:32 | 37.41779 | -118.87807 | 19879 ft | 142 kts | 195° |
| 2026-04-28 04:32 | 37.40790 | -118.87921 | 20087 ft | 142 kts | 195° |
| 2026-04-28 04:33 | 37.39814 | -118.88036 | 20284 ft | 143 kts | 195° |
| 2026-04-28 04:33 | 37.38815 | -118.88152 | 20488 ft | 143 kts | 195° |
| 2026-04-28 04:33 | 37.37819 | -118.88267 | 20681 ft | 144 kts | 195° |
| 2026-04-28 04:33 | 37.36824 | -118.88382 | 20876 ft | 144 kts | 195° |
| 2026-04-28 04:34 | 37.35824 | -118.88498 | 21054 ft | 145 kts | 196° |
| 2026-04-28 04:34 | 37.34821 | -118.88615 | 21247 ft | 144 kts | 196° |
| 2026-04-28 04:34 | 37.33815 | -118.88734 | 21415 ft | 146 kts | 196° |
| 2026-04-28 04:34 | 37.32801 | -118.88850 | 21595 ft | 146 kts | 196° |
| 2026-04-28 04:35 | 37.31800 | -118.88966 | 21759 ft | 147 kts | 197° |
| 2026-04-28 04:35 | 37.30778 | -118.89084 | 21940 ft | 146 kts | 197° |
| 2026-04-28 04:35 | 37.29764 | -118.89204 | 22091 ft | 147 kts | 197° |
| 2026-04-28 04:35 | 37.28737 | -118.89321 | 22261 ft | 147 kts | 197° |
| 2026-04-28 04:36 | 37.27716 | -118.89438 | 22413 ft | 148 kts | 197° |
| 2026-04-28 04:36 | 37.26695 | -118.89559 | 22555 ft | 148 kts | 197° |
| 2026-04-28 04:36 | 37.25662 | -118.89679 | 22713 ft | 148 kts | 197° |
| 2026-04-28 04:36 | 37.24607 | -118.89804 | 22762 ft | 155 kts | 197° |
| 2026-04-28 04:37 | 37.23519 | -118.89934 | 22801 ft | 161 kts | 197° |
| 2026-04-28 04:37 | 37.22381 | -118.90063 | 22891 ft | 163 kts | 197° |
| 2026-04-28 04:37 | 37.21251 | -118.90192 | 22972 ft | 164 kts | 197° |
| 2026-04-28 04:37 | 37.20113 | -118.90324 | 23063 ft | 163 kts | 197° |
| 2026-04-28 04:38 | 37.18975 | -118.90456 | 23080 ft | 167 kts | 197° |
| 2026-04-28 04:38 | 37.17788 | -118.90597 | 23080 ft | 174 kts | 196° |
| 2026-04-28 04:38 | 37.16563 | -118.90742 | 23082 ft | 181 kts | 196° |
| 2026-04-28 04:38 | 37.15282 | -118.90890 | 23085 ft | 187 kts | 195° |
| 2026-04-28 04:39 | 37.13980 | -118.91042 | 23089 ft | 191 kts | 195° |
| 2026-04-28 04:39 | 37.12641 | -118.91200 | 23093 ft | 194 kts | 195° |
| 2026-04-28 04:39 | 37.11274 | -118.91360 | 23098 ft | 197 kts | 195° |
| 2026-04-28 04:39 | 37.09914 | -118.91518 | 23098 ft | 198 kts | 195° |
| 2026-04-28 04:40 | 37.08525 | -118.91679 | 23096 ft | 200 kts | 195° |
| 2026-04-28 04:40 | 37.07153 | -118.91839 | 23090 ft | 201 kts | 195° |
| 2026-04-28 04:40 | 37.05743 | -118.92001 | 23083 ft | 202 kts | 195° |
| 2026-04-28 04:40 | 37.04355 | -118.92160 | 23081 ft | 200 kts | 195° |
| 2026-04-28 04:41 | 37.02971 | -118.92319 | 23077 ft | 200 kts | 195° |
| 2026-04-28 04:41 | 37.01579 | -118.92477 | 23080 ft | 200 kts | 195° |
| 2026-04-28 04:41 | 37.00199 | -118.92636 | 23086 ft | 200 kts | 195° |
| 2026-04-28 04:41 | 36.98814 | -118.92795 | 23089 ft | 199 kts | 195° |
| 2026-04-28 04:42 | 36.97420 | -118.92956 | 23086 ft | 199 kts | 195° |
| 2026-04-28 04:42 | 36.96048 | -118.93113 | 23077 ft | 200 kts | 195° |
| 2026-04-28 04:42 | 36.94664 | -118.93274 | 23077 ft | 200 kts | 195° |
| 2026-04-28 04:42 | 36.93265 | -118.93433 | 23086 ft | 200 kts | 195° |
| 2026-04-28 04:43 | 36.91891 | -118.93591 | 23080 ft | 200 kts | 195° |
| 2026-04-28 04:43 | 36.90505 | -118.93750 | 23084 ft | 198 kts | 195° |
| 2026-04-28 04:43 | 36.89129 | -118.93907 | 23076 ft | 196 kts | 195° |
| 2026-04-28 04:43 | 36.87769 | -118.94063 | 23074 ft | 197 kts | 195° |
| 2026-04-28 04:44 | 36.86403 | -118.94219 | 23072 ft | 196 kts | 195° |
| 2026-04-28 04:44 | 36.85055 | -118.94376 | 23070 ft | 197 kts | 195° |
| 2026-04-28 04:44 | 36.83685 | -118.94531 | 23071 ft | 197 kts | 195° |
| 2026-04-28 04:44 | 36.82324 | -118.94688 | 23066 ft | 197 kts | 195° |
| 2026-04-28 04:45 | 36.80952 | -118.94844 | 23068 ft | 197 kts | 195° |
| 2026-04-28 04:45 | 36.79597 | -118.94999 | 23070 ft | 196 kts | 195° |
| 2026-04-28 04:45 | 36.78222 | -118.95157 | 23070 ft | 196 kts | 195° |
| 2026-04-28 04:45 | 36.76865 | -118.95313 | 23072 ft | 196 kts | 195° |
| 2026-04-28 04:46 | 36.75502 | -118.95467 | 23071 ft | 196 kts | 195° |
| 2026-04-28 04:46 | 36.74156 | -118.95622 | 23075 ft | 197 kts | 195° |
| 2026-04-28 04:46 | 36.72780 | -118.95779 | 23082 ft | 197 kts | 195° |
| 2026-04-28 04:46 | 36.71419 | -118.95933 | 23089 ft | 196 kts | 195° |
| 2026-04-28 04:47 | 36.70056 | -118.96090 | 23087 ft | 195 kts | 195° |
| 2026-04-28 04:47 | 36.68716 | -118.96242 | 23086 ft | 194 kts | 195° |
| 2026-04-28 04:47 | 36.67361 | -118.96395 | 23096 ft | 193 kts | 195° |
| 2026-04-28 04:47 | 36.66025 | -118.96548 | 23097 ft | 193 kts | 195° |
| 2026-04-28 04:48 | 36.64703 | -118.96700 | 23099 ft | 194 kts | 195° |
| 2026-04-28 04:48 | 36.63340 | -118.96857 | 23099 ft | 195 kts | 195° |
| 2026-04-28 04:48 | 36.61993 | -118.97010 | 23103 ft | 195 kts | 195° |
| 2026-04-28 04:48 | 36.60642 | -118.97163 | 23106 ft | 195 kts | 195° |
| 2026-04-28 04:49 | 36.59289 | -118.97316 | 23106 ft | 196 kts | 195° |
| 2026-04-28 04:49 | 36.57935 | -118.97468 | 23100 ft | 196 kts | 194° |
| 2026-04-28 04:49 | 36.56564 | -118.97618 | 23101 ft | 197 kts | 194° |
| 2026-04-28 04:49 | 36.55197 | -118.97770 | 23110 ft | 197 kts | 194° |
| 2026-04-28 04:50 | 36.53836 | -118.97922 | 23106 ft | 197 kts | 194° |
| 2026-04-28 04:50 | 36.52473 | -118.98075 | 23108 ft | 197 kts | 195° |
| 2026-04-28 04:50 | 36.51088 | -118.98231 | 23101 ft | 198 kts | 194° |
| 2026-04-28 04:50 | 36.49725 | -118.98386 | 23103 ft | 197 kts | 194° |
| 2026-04-28 04:51 | 36.48353 | -118.98540 | 23099 ft | 198 kts | 195° |
| 2026-04-28 04:51 | 36.46989 | -118.98695 | 23094 ft | 198 kts | 195° |
| 2026-04-28 04:51 | 36.45614 | -118.98852 | 23090 ft | 198 kts | 194° |
| 2026-04-28 04:51 | 36.44244 | -118.99006 | 23091 ft | 198 kts | 194° |
| 2026-04-28 04:52 | 36.42867 | -118.99162 | 23095 ft | 198 kts | 194° |
| 2026-04-28 04:52 | 36.41499 | -118.99318 | 23101 ft | 197 kts | 194° |
| 2026-04-28 04:52 | 36.40121 | -118.99473 | 23101 ft | 198 kts | 194° |
| 2026-04-28 04:52 | 36.38751 | -118.99628 | 23098 ft | 197 kts | 194° |
| 2026-04-28 04:53 | 36.37389 | -118.99782 | 23092 ft | 197 kts | 194° |
| 2026-04-28 04:53 | 36.36014 | -118.99937 | 23088 ft | 197 kts | 195° |
| 2026-04-28 04:53 | 36.34662 | -119.00090 | 23093 ft | 196 kts | 194° |
| 2026-04-28 04:53 | 36.33284 | -119.00246 | 23088 ft | 196 kts | 194° |
| 2026-04-28 04:54 | 36.31924 | -119.00400 | 23083 ft | 196 kts | 194° |
| 2026-04-28 04:54 | 36.30563 | -119.00554 | 23081 ft | 196 kts | 195° |
| 2026-04-28 04:54 | 36.29208 | -119.00706 | 23083 ft | 196 kts | 194° |
| 2026-04-28 04:54 | 36.27846 | -119.00861 | 23074 ft | 196 kts | 194° |
| 2026-04-28 04:55 | 36.26476 | -119.01015 | 23066 ft | 197 kts | 194° |
| 2026-04-28 04:55 | 36.25119 | -119.01169 | 23073 ft | 196 kts | 195° |
| 2026-04-28 04:55 | 36.23766 | -119.01321 | 23074 ft | 196 kts | 194° |
| 2026-04-28 04:55 | 36.22402 | -119.01474 | 23082 ft | 195 kts | 194° |
| 2026-04-28 04:56 | 36.21061 | -119.01626 | 23085 ft | 195 kts | 194° |
| 2026-04-28 04:56 | 36.19705 | -119.01779 | 23079 ft | 196 kts | 194° |
| 2026-04-28 04:56 | 36.18333 | -119.01934 | 23075 ft | 196 kts | 194° |
| 2026-04-28 04:56 | 36.16989 | -119.02084 | 23071 ft | 195 kts | 194° |
| 2026-04-28 04:57 | 36.15628 | -119.02237 | 23064 ft | 194 kts | 195° |
| 2026-04-28 04:57 | 36.14284 | -119.02388 | 23063 ft | 193 kts | 195° |
| 2026-04-28 04:57 | 36.12938 | -119.02541 | 23066 ft | 195 kts | 195° |
| 2026-04-28 04:57 | 36.11592 | -119.02694 | 23068 ft | 196 kts | 195° |
| 2026-04-28 04:58 | 36.10225 | -119.02846 | 23070 ft | 197 kts | 194° |
| 2026-04-28 04:58 | 36.08857 | -119.03002 | 23070 ft | 197 kts | 194° |
| 2026-04-28 04:58 | 36.07491 | -119.03155 | 23066 ft | 197 kts | 194° |
| 2026-04-28 04:58 | 36.06130 | -119.03308 | 23070 ft | 197 kts | 194° |
| 2026-04-28 04:59 | 36.04765 | -119.03461 | 23074 ft | 197 kts | 194° |
| 2026-04-28 04:59 | 36.03394 | -119.03615 | 23073 ft | 198 kts | 194° |
| 2026-04-28 04:59 | 36.02021 | -119.03767 | 23075 ft | 198 kts | 194° |
| 2026-04-28 04:59 | 36.00647 | -119.03921 | 23074 ft | 198 kts | 194° |
| 2026-04-28 05:00 | 35.99255 | -119.04077 | 23072 ft | 199 kts | 194° |
| 2026-04-28 05:00 | 35.97885 | -119.04232 | 23068 ft | 200 kts | 194° |
| 2026-04-28 05:00 | 35.96487 | -119.04390 | 23068 ft | 200 kts | 194° |
| 2026-04-28 05:00 | 35.95104 | -119.04544 | 23068 ft | 200 kts | 194° |
| 2026-04-28 05:01 | 35.93720 | -119.04698 | 23065 ft | 200 kts | 194° |
| 2026-04-28 05:01 | 35.92319 | -119.04856 | 23064 ft | 200 kts | 194° |
| 2026-04-28 05:01 | 35.90937 | -119.05011 | 23063 ft | 200 kts | 194° |
| 2026-04-28 05:01 | 35.89538 | -119.05167 | 23062 ft | 200 kts | 194° |
| 2026-04-28 05:02 | 35.88160 | -119.05319 | 23061 ft | 199 kts | 194° |
| 2026-04-28 05:02 | 35.86781 | -119.05471 | 23061 ft | 199 kts | 194° |
| 2026-04-28 05:02 | 35.85396 | -119.05625 | 23060 ft | 199 kts | 194° |
| 2026-04-28 05:02 | 35.84019 | -119.05780 | 23059 ft | 199 kts | 194° |
| 2026-04-28 05:03 | 35.82638 | -119.05936 | 23057 ft | 199 kts | 194° |
| 2026-04-28 05:03 | 35.81257 | -119.06091 | 23057 ft | 198 kts | 194° |
| 2026-04-28 05:03 | 35.79879 | -119.06244 | 23059 ft | 198 kts | 194° |
| 2026-04-28 05:03 | 35.78516 | -119.06396 | 23057 ft | 198 kts | 194° |
| 2026-04-28 05:04 | 35.77136 | -119.06550 | 23059 ft | 197 kts | 194° |
| 2026-04-28 05:04 | 35.75778 | -119.06702 | 23063 ft | 197 kts | 194° |
| 2026-04-28 05:04 | 35.74404 | -119.06854 | 23063 ft | 197 kts | 194° |
| 2026-04-28 05:04 | 35.73048 | -119.07005 | 23060 ft | 197 kts | 194° |
| 2026-04-28 05:05 | 35.71675 | -119.07157 | 23061 ft | 197 kts | 194° |
| 2026-04-28 05:05 | 35.70306 | -119.07310 | 23062 ft | 197 kts | 194° |
| 2026-04-28 05:05 | 35.68940 | -119.07461 | 23063 ft | 197 kts | 194° |
| 2026-04-28 05:05 | 35.67578 | -119.07615 | 23062 ft | 197 kts | 193° |
| 2026-04-28 05:06 | 35.66209 | -119.07766 | 23066 ft | 196 kts | 193° |
| 2026-04-28 05:06 | 35.64848 | -119.07917 | 23064 ft | 196 kts | 193° |
| 2026-04-28 05:06 | 35.63495 | -119.08067 | 23068 ft | 196 kts | 193° |
| 2026-04-28 05:06 | 35.62125 | -119.08220 | 23068 ft | 196 kts | 193° |
| 2026-04-28 05:07 | 35.60775 | -119.08370 | 23068 ft | 196 kts | 193° |
| 2026-04-28 05:07 | 35.59407 | -119.08521 | 23068 ft | 196 kts | 193° |
| 2026-04-28 05:07 | 35.58044 | -119.08672 | 23067 ft | 196 kts | 193° |
| 2026-04-28 05:07 | 35.56687 | -119.08822 | 23064 ft | 196 kts | 193° |
| 2026-04-28 05:08 | 35.55331 | -119.08974 | 23066 ft | 196 kts | 193° |
| 2026-04-28 05:08 | 35.53972 | -119.09124 | 23067 ft | 196 kts | 193° |
| 2026-04-28 05:08 | 35.52619 | -119.09272 | 23064 ft | 195 kts | 193° |
| 2026-04-28 05:08 | 35.51253 | -119.09425 | 23068 ft | 195 kts | 193° |
| 2026-04-28 05:09 | 35.49910 | -119.09573 | 23070 ft | 195 kts | 193° |
| 2026-04-28 05:09 | 35.48554 | -119.09686 | 23062 ft | 200 kts | 184° |
| 2026-04-28 05:09 | 35.47172 | -119.09319 | 23070 ft | 205 kts | 172° |
| 2026-04-28 05:09 | 35.45784 | -119.08829 | 23069 ft | 206 kts | 171° |
| 2026-04-28 05:10 | 35.44411 | -119.08338 | 23068 ft | 206 kts | 171° |
| 2026-04-28 05:10 | 35.43043 | -119.07856 | 23069 ft | 205 kts | 171° |
| 2026-04-28 05:10 | 35.41655 | -119.07367 | 23070 ft | 206 kts | 171° |
| 2026-04-28 05:10 | 35.40296 | -119.06890 | 23069 ft | 205 kts | 171° |
| 2026-04-28 05:11 | 35.38915 | -119.06408 | 23069 ft | 205 kts | 171° |
| 2026-04-28 05:11 | 35.37532 | -119.05925 | 23069 ft | 206 kts | 171° |
| 2026-04-28 05:11 | 35.36153 | -119.05446 | 23069 ft | 205 kts | 171° |
| 2026-04-28 05:11 | 35.34784 | -119.04967 | 23070 ft | 205 kts | 171° |
| 2026-04-28 05:12 | 35.33408 | -119.04488 | 23069 ft | 205 kts | 171° |
| 2026-04-28 05:12 | 35.32042 | -119.04010 | 23070 ft | 205 kts | 171° |
| 2026-04-28 05:12 | 35.30666 | -119.03529 | 23069 ft | 205 kts | 171° |
| 2026-04-28 05:12 | 35.29292 | -119.03053 | 23067 ft | 205 kts | 171° |
| 2026-04-28 05:13 | 35.27913 | -119.02573 | 23066 ft | 205 kts | 171° |
| 2026-04-28 05:13 | 35.26554 | -119.02098 | 23065 ft | 205 kts | 171° |
| 2026-04-28 05:13 | 35.25177 | -119.01621 | 23065 ft | 205 kts | 171° |
| 2026-04-28 05:13 | 35.23803 | -119.01144 | 23066 ft | 205 kts | 171° |
| 2026-04-28 05:14 | 35.22435 | -119.00669 | 23069 ft | 204 kts | 171° |
| 2026-04-28 05:14 | 35.21056 | -119.00189 | 23070 ft | 204 kts | 171° |
| 2026-04-28 05:14 | 35.19698 | -118.99717 | 23064 ft | 205 kts | 171° |
| 2026-04-28 05:14 | 35.18323 | -118.99238 | 23063 ft | 204 kts | 171° |
| 2026-04-28 05:15 | 35.16946 | -118.98763 | 23068 ft | 204 kts | 171° |
| 2026-04-28 05:15 | 35.15579 | -118.98287 | 23066 ft | 204 kts | 171° |
| 2026-04-28 05:15 | 35.14212 | -118.97814 | 23065 ft | 204 kts | 171° |
| 2026-04-28 05:15 | 35.12839 | -118.97340 | 23070 ft | 204 kts | 171° |
| 2026-04-28 05:16 | 35.11471 | -118.96867 | 23069 ft | 204 kts | 171° |
| 2026-04-28 05:16 | 35.10122 | -118.96397 | 23068 ft | 204 kts | 171° |
| 2026-04-28 05:16 | 35.08752 | -118.95923 | 23067 ft | 204 kts | 171° |
| 2026-04-28 05:17 | 35.06020 | -118.94977 | 23069 ft | 203 kts | 171° |
| 2026-04-28 05:17 | 35.04665 | -118.94509 | 23065 ft | 203 kts | 171° |
| 2026-04-28 05:17 | 35.03294 | -118.94035 | 23064 ft | 203 kts | 171° |
| 2026-04-28 05:17 | 35.01929 | -118.93565 | 23065 ft | 203 kts | 171° |
| 2026-04-28 05:18 | 35.00585 | -118.93100 | 23069 ft | 203 kts | 171° |
| 2026-04-28 05:18 | 34.99214 | -118.92627 | 23074 ft | 203 kts | 171° |
| 2026-04-28 05:18 | 34.97857 | -118.92158 | 23071 ft | 203 kts | 170° |